createdAt,value
2019-03-18T00:00:04.872Z,970.68
2019-03-18T00:01:04.790Z,970.85
2019-03-18T00:02:04.741Z,970.90
2019-03-18T00:03:10.338Z,970.99
2019-03-18T00:04:04.675Z,971.07
2019-03-18T00:05:04.598Z,971.19
2019-03-18T00:06:04.840Z,971.30
2019-03-18T00:07:05.064Z,971.22
2019-03-18T00:08:05.056Z,971.22
2019-03-18T00:09:05.346Z,971.22
2019-03-18T00:10:04.484Z,971.25
2019-03-18T00:11:04.494Z,971.28
2019-03-18T00:12:04.440Z,971.31
2019-03-18T00:13:04.502Z,971.20
2019-03-18T00:14:04.517Z,971.31
2019-03-18T00:15:04.894Z,971.14
2019-03-18T00:16:05.036Z,971.25
2019-03-18T00:17:05.367Z,971.23
2019-03-18T00:18:05.260Z,971.14
2019-03-18T00:19:04.730Z,971.17
2019-03-18T00:20:05.103Z,971.17
2019-03-18T00:21:05.211Z,971.23
2019-03-18T00:22:05.029Z,971.29
2019-03-18T00:23:04.617Z,971.23
2019-03-18T00:24:04.981Z,971.26
2019-03-18T00:25:05.394Z,971.21
2019-03-18T00:26:05.297Z,971.18
2019-03-18T00:27:04.601Z,971.26
2019-03-18T00:28:04.818Z,971.13
2019-03-18T00:29:04.795Z,971.35
2019-03-18T00:30:05.205Z,971.35
2019-03-18T00:31:05.427Z,971.38
2019-03-18T00:32:05.419Z,971.27
2019-03-18T00:33:04.400Z,971.35
2019-03-18T00:34:04.382Z,971.58
2019-03-18T00:35:04.783Z,971.47
2019-03-18T00:36:04.957Z,971.49
2019-03-18T00:37:04.856Z,971.61
2019-03-18T00:38:04.872Z,971.58
2019-03-18T00:39:04.955Z,971.63
2019-03-18T00:40:04.945Z,971.80
2019-03-18T00:41:05.027Z,971.55
2019-03-18T00:42:05.059Z,971.58
2019-03-18T00:43:10.148Z,971.58
2019-03-18T00:44:05.125Z,971.55
2019-03-18T00:45:15.675Z,971.46
2019-03-18T00:46:05.265Z,971.49
2019-03-18T00:47:05.491Z,971.52
2019-03-18T00:48:05.469Z,971.49
2019-03-18T00:49:05.371Z,971.52
2019-03-18T00:50:04.976Z,971.63
2019-03-18T00:51:05.070Z,971.60
2019-03-18T00:52:05.109Z,971.52
2019-03-18T00:53:05.177Z,971.60
2019-03-18T00:54:04.738Z,971.71
2019-03-18T00:55:04.727Z,971.74
2019-03-18T00:56:04.699Z,971.66
2019-03-18T00:57:04.853Z,971.52
2019-03-18T00:58:05.340Z,971.57
2019-03-18T00:59:04.571Z,971.71
2019-03-18T01:00:04.474Z,971.68
2019-03-18T01:01:04.682Z,971.55
2019-03-18T01:02:04.983Z,971.57
2019-03-18T01:03:04.958Z,971.52
2019-03-18T01:04:04.819Z,971.52
2019-03-18T01:05:04.887Z,971.54
2019-03-18T01:06:05.038Z,971.66
2019-03-18T01:07:04.972Z,971.66
2019-03-18T01:08:05.297Z,971.71
2019-03-18T01:09:04.892Z,971.71
2019-03-18T01:10:05.054Z,971.74
2019-03-18T01:11:05.227Z,971.84
2019-03-18T01:12:05.264Z,971.66
2019-03-18T01:13:04.923Z,971.66
2019-03-18T01:14:04.955Z,971.77
2019-03-18T01:15:04.969Z,971.71
2019-03-18T01:16:04.943Z,971.71
2019-03-18T01:17:05.010Z,971.80
2019-03-18T01:18:05.074Z,971.60
2019-03-18T01:19:05.182Z,971.68
2019-03-18T01:20:05.270Z,971.68
2019-03-18T01:21:05.215Z,971.82
2019-03-18T01:22:04.791Z,971.63
2019-03-18T01:23:04.668Z,971.60
2019-03-18T01:24:04.638Z,971.71
2019-03-18T01:25:04.712Z,971.57
2019-03-18T01:26:04.686Z,971.51
2019-03-18T01:27:04.506Z,971.63
2019-03-18T01:28:04.940Z,971.63
2019-03-18T01:29:04.894Z,971.57
2019-03-18T01:30:05.333Z,971.63
2019-03-18T01:31:04.813Z,971.51
2019-03-18T01:32:05.312Z,971.49
2019-03-18T01:33:05.116Z,971.57
2019-03-18T01:34:04.634Z,971.66
2019-03-18T01:35:05.019Z,971.63
2019-03-18T01:36:05.141Z,971.55
2019-03-18T01:37:04.554Z,971.60
2019-03-18T01:38:04.764Z,971.63
2019-03-18T01:39:05.313Z,971.58
2019-03-18T01:40:05.306Z,971.60
2019-03-18T01:41:05.385Z,971.60
2019-03-18T01:42:05.357Z,971.69
2019-03-18T01:43:09.877Z,971.69
2019-03-18T01:44:05.182Z,971.55
2019-03-18T01:45:05.122Z,971.47
2019-03-18T01:46:05.354Z,971.47
2019-03-18T01:47:05.330Z,971.44
2019-03-18T01:48:05.381Z,971.61
2019-03-18T01:49:05.026Z,971.53
2019-03-18T01:50:04.924Z,971.53
2019-03-18T01:51:04.583Z,971.47
2019-03-18T01:52:04.700Z,971.45
2019-03-18T01:53:04.592Z,971.48
2019-03-18T01:54:05.164Z,971.51
2019-03-18T01:55:04.604Z,971.51
2019-03-18T01:56:04.728Z,971.54
2019-03-18T01:57:04.730Z,971.51
2019-03-18T01:58:04.664Z,971.62
2019-03-18T01:59:04.789Z,971.57
2019-03-18T02:00:05.454Z,971.57
2019-03-18T02:01:04.497Z,971.68
2019-03-18T02:02:04.467Z,971.74
2019-03-18T02:03:04.581Z,971.66
2019-03-18T02:04:04.760Z,971.87
2019-03-18T02:05:04.914Z,971.74
2019-03-18T02:06:04.948Z,971.85
2019-03-18T02:07:04.879Z,972.04
2019-03-18T02:08:05.166Z,971.85
2019-03-18T02:09:04.450Z,971.90
2019-03-18T02:10:04.411Z,971.78
2019-03-18T02:11:04.970Z,971.83
2019-03-18T02:12:10.158Z,971.78
2019-03-18T02:13:04.457Z,971.88
2019-03-18T02:14:04.487Z,971.93
2019-03-18T02:15:05.050Z,971.93
2019-03-18T02:16:04.962Z,971.99
2019-03-18T02:17:05.413Z,971.88
2019-03-18T02:18:05.335Z,971.93
2019-03-18T02:19:04.404Z,971.83
2019-03-18T02:20:04.950Z,971.93
2019-03-18T02:21:04.971Z,971.94
2019-03-18T02:22:04.936Z,971.78
2019-03-18T02:23:04.926Z,971.85
2019-03-18T02:24:05.434Z,971.85
2019-03-18T02:25:05.335Z,971.91
2019-03-18T02:26:04.890Z,971.99
2019-03-18T02:27:04.827Z,971.91
2019-03-18T02:28:04.824Z,971.85
2019-03-18T02:29:05.193Z,971.94
2019-03-18T02:30:05.346Z,971.99
2019-03-18T02:31:05.431Z,971.94
2019-03-18T02:32:05.401Z,971.83
2019-03-18T02:33:04.886Z,972.00
2019-03-18T02:34:05.464Z,972.11
2019-03-18T02:35:05.440Z,971.97
2019-03-18T02:36:04.754Z,971.97
2019-03-18T02:37:04.811Z,972.11
2019-03-18T02:38:05.077Z,972.00
2019-03-18T02:39:04.416Z,972.11
2019-03-18T02:40:05.026Z,972.08
2019-03-18T02:41:05.021Z,972.16
2019-03-18T02:42:05.084Z,971.94
2019-03-18T02:43:05.234Z,972.02
2019-03-18T02:44:05.121Z,972.17
2019-03-18T02:45:05.234Z,971.97
2019-03-18T02:46:11.305Z,971.97
2019-03-18T02:47:04.730Z,972.14
2019-03-18T02:48:04.869Z,972.17
2019-03-18T02:49:04.836Z,972.22
2019-03-18T02:50:04.874Z,972.14
2019-03-18T02:51:04.835Z,972.22
2019-03-18T02:52:04.763Z,972.08
2019-03-18T02:53:04.742Z,972.08
2019-03-18T02:54:04.804Z,972.08
2019-03-18T02:55:04.875Z,971.94
2019-03-18T02:56:05.180Z,972.08
2019-03-18T02:57:05.289Z,971.89
2019-03-18T02:58:05.245Z,972.03
2019-03-18T02:59:05.202Z,972.00
2019-03-18T03:00:04.811Z,972.00
2019-03-18T03:01:04.842Z,971.86
2019-03-18T03:02:04.843Z,971.95
2019-03-18T03:03:04.854Z,971.98
2019-03-18T03:04:04.951Z,972.01
2019-03-18T03:05:04.886Z,972.21
2019-03-18T03:06:04.906Z,972.15
2019-03-18T03:07:05.354Z,972.07
2019-03-18T03:08:05.259Z,972.07
2019-03-18T03:09:05.163Z,972.07
2019-03-18T03:10:04.582Z,972.10
2019-03-18T03:11:04.814Z,972.15
2019-03-18T03:12:05.187Z,972.21
2019-03-18T03:13:05.017Z,972.13
2019-03-18T03:14:05.102Z,972.21
2019-03-18T03:15:05.344Z,972.12
2019-03-18T03:16:04.706Z,972.15
2019-03-18T03:17:04.758Z,972.15
2019-03-18T03:18:04.612Z,972.35
2019-03-18T03:19:05.096Z,972.40
2019-03-18T03:20:10.098Z,972.35
2019-03-18T03:21:05.417Z,972.29
2019-03-18T03:22:05.397Z,972.40
2019-03-18T03:23:04.440Z,972.35
2019-03-18T03:24:04.864Z,972.35
2019-03-18T03:25:04.875Z,972.26
2019-03-18T03:26:04.884Z,972.32
2019-03-18T03:27:05.289Z,972.23
2019-03-18T03:28:05.266Z,972.34
2019-03-18T03:29:05.142Z,972.23
2019-03-18T03:30:05.560Z,972.29
2019-03-18T03:31:04.547Z,972.29
2019-03-18T03:32:04.910Z,972.29
2019-03-18T03:33:04.894Z,972.29
2019-03-18T03:34:04.926Z,972.34
2019-03-18T03:35:05.101Z,972.45
2019-03-18T03:36:05.251Z,972.40
2019-03-18T03:37:04.905Z,972.37
2019-03-18T03:38:04.723Z,972.31
2019-03-18T03:39:05.159Z,972.40
2019-03-18T03:40:05.353Z,972.56
2019-03-18T03:41:04.689Z,972.43
2019-03-18T03:42:04.996Z,972.37
2019-03-18T03:43:10.344Z,972.42
2019-03-18T03:44:04.610Z,972.56
2019-03-18T03:45:04.597Z,972.45
2019-03-18T03:46:04.811Z,972.48
2019-03-18T03:47:05.150Z,972.45
2019-03-18T03:48:05.303Z,972.48
2019-03-18T03:49:04.897Z,972.45
2019-03-18T03:50:04.840Z,972.42
2019-03-18T03:51:05.260Z,972.37
2019-03-18T03:52:05.412Z,972.28
2019-03-18T03:53:04.580Z,972.45
2019-03-18T03:54:04.495Z,972.39
2019-03-18T03:55:04.438Z,972.31
2019-03-18T03:56:04.776Z,972.39
2019-03-18T03:57:05.072Z,972.40
2019-03-18T03:58:04.959Z,972.37
2019-03-18T03:59:05.125Z,972.42
2019-03-18T04:00:05.146Z,972.45
2019-03-18T04:01:04.627Z,972.42
2019-03-18T04:02:04.615Z,972.34
2019-03-18T04:03:04.575Z,972.45
2019-03-18T04:04:04.676Z,972.42
2019-03-18T04:05:04.617Z,972.40
2019-03-18T04:06:05.241Z,972.58
2019-03-18T04:07:04.763Z,972.58
2019-03-18T04:08:04.657Z,972.56
2019-03-18T04:09:04.706Z,972.64
2019-03-18T04:10:04.658Z,972.56
2019-03-18T04:11:09.090Z,972.58
2019-03-18T04:12:04.778Z,972.56
2019-03-18T04:13:04.643Z,972.61
2019-03-18T04:14:05.143Z,972.48
2019-03-18T04:15:04.730Z,972.53
2019-03-18T04:16:04.606Z,972.55
2019-03-18T04:17:04.724Z,972.58
2019-03-18T04:18:04.768Z,972.64
2019-03-18T04:19:04.842Z,972.55
2019-03-18T04:20:05.224Z,972.45
2019-03-18T04:21:05.232Z,972.69
2019-03-18T04:22:05.294Z,972.58
2019-03-18T04:23:05.288Z,972.48
2019-03-18T04:24:05.254Z,972.58
2019-03-18T04:25:04.438Z,972.66
2019-03-18T04:26:04.568Z,972.58
2019-03-18T04:27:04.560Z,972.61
2019-03-18T04:28:04.861Z,972.69
2019-03-18T04:29:05.156Z,972.80
2019-03-18T04:30:04.767Z,972.75
2019-03-18T04:31:05.219Z,972.72
2019-03-18T04:32:04.492Z,972.89
2019-03-18T04:33:04.494Z,972.75
2019-03-18T04:34:05.134Z,972.86
2019-03-18T04:35:05.221Z,972.89
2019-03-18T04:36:05.093Z,972.95
2019-03-18T04:37:05.105Z,972.75
2019-03-18T04:38:04.625Z,972.78
2019-03-18T04:39:04.536Z,972.80
2019-03-18T04:40:04.635Z,972.80
2019-03-18T04:41:04.582Z,972.80
2019-03-18T04:42:04.612Z,972.75
2019-03-18T04:43:09.623Z,972.86
2019-03-18T04:44:04.971Z,972.86
2019-03-18T04:45:04.856Z,972.92
2019-03-18T04:46:04.439Z,973.06
2019-03-18T04:47:14.824Z,972.84
2019-03-18T04:48:05.464Z,972.95
2019-03-18T04:49:05.374Z,972.95
2019-03-18T04:50:05.453Z,972.86
2019-03-18T04:51:05.255Z,972.95
2019-03-18T04:52:04.701Z,972.89
2019-03-18T04:53:04.744Z,972.86
2019-03-18T04:54:04.634Z,973.00
2019-03-18T04:55:04.715Z,973.00
2019-03-18T04:56:05.153Z,972.97
2019-03-18T04:57:05.180Z,972.84
2019-03-18T04:58:05.201Z,972.84
2019-03-18T04:59:05.260Z,972.97
2019-03-18T05:00:05.262Z,972.95
2019-03-18T05:01:05.159Z,972.84
2019-03-18T05:02:04.680Z,972.92
2019-03-18T05:03:09.751Z,972.89
2019-03-18T05:04:05.130Z,972.84
2019-03-18T05:05:04.992Z,972.89
2019-03-18T05:06:05.178Z,972.92
2019-03-18T05:07:05.238Z,972.67
2019-03-18T05:08:05.214Z,972.83
2019-03-18T05:09:04.846Z,972.67
2019-03-18T05:10:04.815Z,972.86
2019-03-18T05:11:05.406Z,972.95
2019-03-18T05:12:04.895Z,973.00
2019-03-18T05:13:04.531Z,972.81
2019-03-18T05:14:05.376Z,972.89
2019-03-18T05:15:05.496Z,972.89
2019-03-18T05:16:05.341Z,972.92
2019-03-18T05:17:05.454Z,972.95
2019-03-18T05:18:04.958Z,972.89
2019-03-18T05:19:04.955Z,973.06
2019-03-18T05:20:04.408Z,972.92
2019-03-18T05:21:04.427Z,973.01
2019-03-18T05:22:04.921Z,972.87
2019-03-18T05:23:04.814Z,973.07
2019-03-18T05:24:04.755Z,972.95
2019-03-18T05:25:05.877Z,972.98
2019-03-18T05:26:05.313Z,973.18
2019-03-18T05:27:04.749Z,973.15
2019-03-18T05:28:05.170Z,973.07
2019-03-18T05:29:05.109Z,973.12
2019-03-18T05:30:04.547Z,973.13
2019-03-18T05:31:05.045Z,973.15
2019-03-18T05:32:05.536Z,973.01
2019-03-18T05:33:05.184Z,973.10
2019-03-18T05:34:05.039Z,972.98
2019-03-18T05:35:05.086Z,972.98
2019-03-18T05:36:05.188Z,972.93
2019-03-18T05:37:04.797Z,972.98
2019-03-18T05:38:04.774Z,973.15
2019-03-18T05:39:04.742Z,973.15
2019-03-18T05:40:04.801Z,973.18
2019-03-18T05:41:04.788Z,973.15
2019-03-18T05:42:04.781Z,973.01
2019-03-18T05:43:04.847Z,973.01
2019-03-18T05:44:10.018Z,973.07
2019-03-18T05:45:05.349Z,973.18
2019-03-18T05:46:05.347Z,973.18
2019-03-18T05:47:04.855Z,973.24
2019-03-18T05:48:04.891Z,973.18
2019-03-18T05:49:04.825Z,973.38
2019-03-18T05:50:04.930Z,973.24
2019-03-18T05:51:05.316Z,973.27
2019-03-18T05:52:04.712Z,973.38
2019-03-18T05:53:05.167Z,973.32
2019-03-18T05:54:04.652Z,973.32
2019-03-18T05:55:04.660Z,973.26
2019-03-18T05:56:04.589Z,973.23
2019-03-18T05:57:04.581Z,973.31
2019-03-18T05:58:04.538Z,973.23
2019-03-18T05:59:04.864Z,973.25
2019-03-18T06:00:05.153Z,973.35
2019-03-18T06:01:05.305Z,973.37
2019-03-18T06:02:05.390Z,973.34
2019-03-18T06:03:05.377Z,973.33
2019-03-18T06:04:05.082Z,973.24
2019-03-18T06:05:05.421Z,973.29
2019-03-18T06:06:04.812Z,973.32
2019-03-18T06:07:05.134Z,973.23
2019-03-18T06:08:04.626Z,973.20
2019-03-18T06:09:04.772Z,973.12
2019-03-18T06:10:05.263Z,973.29
2019-03-18T06:11:05.228Z,973.14
2019-03-18T06:12:05.174Z,973.22
2019-03-18T06:13:05.216Z,973.22
2019-03-18T06:14:04.558Z,973.32
2019-03-18T06:15:05.022Z,973.23
2019-03-18T06:16:05.278Z,973.17
2019-03-18T06:17:05.224Z,973.16
2019-03-18T06:18:04.796Z,973.24
2019-03-18T06:19:05.154Z,973.18
2019-03-18T06:20:05.391Z,973.31
2019-03-18T06:21:04.744Z,973.27
2019-03-18T06:22:04.957Z,973.21
2019-03-18T06:23:04.954Z,973.18
2019-03-18T06:24:06.872Z,973.37
2019-03-18T06:25:04.612Z,973.36
2019-03-18T06:26:04.952Z,973.21
2019-03-18T06:27:05.204Z,973.41
2019-03-18T06:28:05.353Z,973.43
2019-03-18T06:29:05.223Z,973.31
2019-03-18T06:30:04.551Z,973.31
2019-03-18T06:31:04.507Z,973.44
2019-03-18T06:32:04.512Z,973.44
2019-03-18T06:33:05.017Z,973.29
2019-03-18T06:34:04.500Z,973.40
2019-03-18T06:35:05.067Z,973.42
2019-03-18T06:36:04.537Z,973.45
2019-03-18T06:37:05.008Z,973.47
2019-03-18T06:38:04.613Z,973.66
2019-03-18T06:39:04.609Z,973.47
2019-03-18T06:40:04.483Z,973.62
2019-03-18T06:41:04.672Z,973.54
2019-03-18T06:42:04.812Z,973.64
2019-03-18T06:43:09.898Z,973.75
2019-03-18T06:44:05.238Z,973.55
2019-03-18T06:45:05.386Z,973.63
2019-03-18T06:46:05.355Z,973.74
2019-03-18T06:47:05.248Z,973.68
2019-03-18T06:48:05.915Z,973.85
2019-03-18T06:49:04.411Z,973.82
2019-03-18T06:50:04.394Z,973.84
2019-03-18T06:51:04.498Z,973.90
2019-03-18T06:52:04.473Z,973.81
2019-03-18T06:53:05.026Z,973.81
2019-03-18T06:54:05.432Z,974.01
2019-03-18T06:55:04.448Z,973.75
2019-03-18T06:56:04.518Z,973.80
2019-03-18T06:57:04.444Z,973.89
2019-03-18T06:58:04.952Z,973.80
2019-03-18T06:59:04.639Z,973.82
2019-03-18T07:00:07.378Z,973.82
2019-03-18T07:01:04.975Z,973.91
2019-03-18T07:02:04.945Z,973.88
2019-03-18T07:03:04.947Z,973.99
2019-03-18T07:04:05.365Z,973.96
2019-03-18T07:05:04.683Z,974.02
2019-03-18T07:06:05.140Z,973.93
2019-03-18T07:07:05.102Z,974.02
2019-03-18T07:08:05.435Z,974.05
2019-03-18T07:09:05.440Z,974.05
2019-03-18T07:10:05.019Z,973.93
2019-03-18T07:11:05.137Z,973.90
2019-03-18T07:12:05.146Z,974.02
2019-03-18T07:13:05.118Z,973.99
2019-03-18T07:14:05.110Z,973.99
2019-03-18T07:15:04.497Z,973.85
2019-03-18T07:16:05.277Z,973.93
2019-03-18T07:17:05.415Z,973.96
2019-03-18T07:18:18.762Z,973.87
2019-03-18T07:19:09.562Z,973.81
2019-03-18T07:20:04.800Z,973.87
2019-03-18T07:21:04.821Z,973.93
2019-03-18T07:22:05.181Z,973.84
2019-03-18T07:23:04.664Z,973.96
2019-03-18T07:24:04.981Z,974.02
2019-03-18T07:25:05.153Z,973.82
2019-03-18T07:26:04.535Z,973.91
2019-03-18T07:27:04.560Z,973.91
2019-03-18T07:28:04.520Z,974.08
2019-03-18T07:29:04.544Z,974.02
2019-03-18T07:30:04.821Z,974.02
2019-03-18T07:31:04.980Z,973.91
2019-03-18T07:32:04.985Z,974.03
2019-03-18T07:33:04.471Z,974.06
2019-03-18T07:34:04.621Z,974.08
2019-03-18T07:35:05.255Z,973.97
2019-03-18T07:36:04.867Z,974.05
2019-03-18T07:37:05.044Z,973.94
2019-03-18T07:38:05.070Z,974.11
2019-03-18T07:39:04.489Z,974.19
2019-03-18T07:40:04.516Z,974.19
2019-03-18T07:41:05.418Z,974.16
2019-03-18T07:42:05.379Z,974.18
2019-03-18T07:43:09.584Z,974.15
2019-03-18T07:44:04.838Z,974.30
2019-03-18T07:45:05.232Z,974.21
2019-03-18T07:46:04.766Z,974.13
2019-03-18T07:47:04.777Z,974.25
2019-03-18T07:48:06.990Z,974.09
2019-03-18T07:49:04.616Z,974.26
2019-03-18T07:50:05.074Z,974.29
2019-03-18T07:51:05.064Z,974.27
2019-03-18T07:52:05.121Z,974.28
2019-03-18T07:53:05.131Z,974.17
2019-03-18T07:54:05.139Z,974.15
2019-03-18T07:55:05.336Z,974.18
2019-03-18T07:56:04.418Z,974.13
2019-03-18T07:57:05.038Z,974.22
2019-03-18T07:58:05.070Z,974.28
2019-03-18T07:59:05.017Z,974.26
2019-03-18T08:00:05.103Z,974.27
2019-03-18T08:01:05.043Z,974.19
2019-03-18T08:02:05.266Z,974.22
2019-03-18T08:03:09.599Z,974.28
2019-03-18T08:04:04.912Z,974.25
2019-03-18T08:05:04.511Z,974.45
2019-03-18T08:06:05.348Z,974.34
2019-03-18T08:07:04.773Z,974.35
2019-03-18T08:08:05.324Z,974.41
2019-03-18T08:09:05.397Z,974.41
2019-03-18T08:10:05.238Z,974.38
2019-03-18T08:11:04.779Z,974.44
2019-03-18T08:12:05.062Z,974.55
2019-03-18T08:13:05.159Z,974.39
2019-03-18T08:14:04.530Z,974.44
2019-03-18T08:15:04.598Z,974.53
2019-03-18T08:16:04.506Z,974.59
2019-03-18T08:17:05.689Z,974.56
2019-03-18T08:18:04.882Z,974.56
2019-03-18T08:19:04.832Z,974.56
2019-03-18T08:20:05.337Z,974.62
2019-03-18T08:21:04.490Z,974.68
2019-03-18T08:22:04.393Z,974.51
2019-03-18T08:23:04.568Z,974.62
2019-03-18T08:24:04.651Z,974.68
2019-03-18T08:25:04.635Z,974.65
2019-03-18T08:26:04.670Z,974.68
2019-03-18T08:27:05.186Z,974.60
2019-03-18T08:28:05.043Z,974.63
2019-03-18T08:29:05.058Z,974.71
2019-03-18T08:30:05.453Z,974.54
2019-03-18T08:31:04.777Z,974.74
2019-03-18T08:32:04.904Z,974.60
2019-03-18T08:33:05.048Z,974.69
2019-03-18T08:34:04.926Z,974.74
2019-03-18T08:35:04.413Z,974.72
2019-03-18T08:36:04.532Z,974.58
2019-03-18T08:37:04.494Z,974.69
2019-03-18T08:38:04.984Z,974.69
2019-03-18T08:39:04.845Z,974.66
2019-03-18T08:40:04.898Z,974.83
2019-03-18T08:41:05.264Z,974.75
2019-03-18T08:42:05.330Z,974.80
2019-03-18T08:43:10.396Z,974.69
2019-03-18T08:44:04.771Z,974.69
2019-03-18T08:45:04.614Z,974.75
2019-03-18T08:46:04.581Z,974.83
2019-03-18T08:47:05.026Z,974.81
2019-03-18T08:48:05.043Z,974.92
2019-03-18T08:49:05.133Z,974.72
2019-03-18T08:50:04.685Z,974.92
2019-03-18T08:51:04.672Z,974.86
2019-03-18T08:52:04.649Z,974.78
2019-03-18T08:53:05.152Z,974.81
2019-03-18T08:54:04.519Z,974.89
2019-03-18T08:55:04.784Z,974.86
2019-03-18T08:56:05.012Z,974.89
2019-03-18T08:57:04.482Z,974.86
2019-03-18T08:58:04.613Z,974.92
2019-03-18T08:59:04.640Z,974.96
2019-03-18T09:00:05.171Z,975.13
2019-03-18T09:01:05.193Z,974.89
2019-03-18T09:02:04.700Z,975.16
2019-03-18T09:03:05.046Z,974.91
2019-03-18T09:04:05.226Z,974.94
2019-03-18T09:05:05.085Z,974.91
2019-03-18T09:06:05.539Z,974.96
2019-03-18T09:07:04.638Z,974.94
2019-03-18T09:08:04.852Z,975.04
2019-03-18T09:09:05.534Z,974.94
2019-03-18T09:10:05.491Z,975.04
2019-03-18T09:11:04.726Z,975.10
2019-03-18T09:12:05.005Z,975.10
2019-03-18T09:13:05.135Z,975.15
2019-03-18T09:14:05.168Z,974.82
2019-03-18T09:15:04.911Z,974.98
2019-03-18T09:16:05.083Z,975.09
2019-03-18T09:17:05.227Z,975.09
2019-03-18T09:18:05.168Z,975.18
2019-03-18T09:19:09.367Z,975.00
2019-03-18T09:20:05.172Z,975.23
2019-03-18T09:21:05.227Z,975.31
2019-03-18T09:22:05.477Z,975.14
2019-03-18T09:23:04.573Z,975.03
2019-03-18T09:24:04.824Z,975.25
2019-03-18T09:25:05.188Z,974.95
2019-03-18T09:26:05.245Z,975.20
2019-03-18T09:27:05.395Z,975.14
2019-03-18T09:28:05.493Z,975.20
2019-03-18T09:29:04.938Z,975.14
2019-03-18T09:30:04.579Z,975.19
2019-03-18T09:31:04.744Z,975.28
2019-03-18T09:32:05.111Z,975.19
2019-03-18T09:33:05.365Z,975.41
2019-03-18T09:34:05.534Z,975.31
2019-03-18T09:35:04.815Z,975.22
2019-03-18T09:36:04.902Z,975.28
2019-03-18T09:37:04.909Z,975.28
2019-03-18T09:38:05.019Z,975.35
2019-03-18T09:39:04.696Z,975.31
2019-03-18T09:40:04.707Z,975.33
2019-03-18T09:41:04.850Z,975.41
2019-03-18T09:42:05.171Z,975.28
2019-03-18T09:43:10.434Z,975.42
2019-03-18T09:44:04.819Z,975.42
2019-03-18T09:45:05.519Z,975.56
2019-03-18T09:46:04.635Z,975.42
2019-03-18T09:47:04.999Z,975.36
2019-03-18T09:48:05.133Z,975.42
2019-03-18T09:49:05.252Z,975.42
2019-03-18T09:50:04.841Z,975.39
2019-03-18T09:51:04.922Z,975.42
2019-03-18T09:52:05.124Z,975.50
2019-03-18T09:53:04.598Z,975.42
2019-03-18T09:54:05.286Z,975.45
2019-03-18T09:55:05.311Z,975.48
2019-03-18T09:56:05.421Z,975.53
2019-03-18T09:57:05.495Z,975.48
2019-03-18T09:58:04.944Z,975.51
2019-03-18T09:59:05.054Z,975.65
2019-03-18T10:00:05.025Z,975.54
2019-03-18T10:01:05.194Z,975.48
2019-03-18T10:02:04.768Z,975.56
2019-03-18T10:03:05.585Z,975.65
2019-03-18T10:04:05.182Z,975.65
2019-03-18T10:05:05.511Z,975.45
2019-03-18T10:06:05.299Z,975.62
2019-03-18T10:07:04.520Z,975.65
2019-03-18T10:08:04.842Z,975.65
2019-03-18T10:09:04.912Z,975.71
2019-03-18T10:10:04.907Z,975.65
2019-03-18T10:11:05.101Z,975.68
2019-03-18T10:12:04.636Z,975.77
2019-03-18T10:13:04.815Z,975.60
2019-03-18T10:14:04.835Z,975.74
2019-03-18T10:15:05.087Z,975.68
2019-03-18T10:16:05.572Z,975.68
2019-03-18T10:17:10.330Z,975.71
2019-03-18T10:18:04.943Z,975.56
2019-03-18T10:19:04.804Z,975.64
2019-03-18T10:20:05.400Z,975.64
2019-03-18T10:21:04.542Z,975.69
2019-03-18T10:22:05.131Z,975.71
2019-03-18T10:23:05.281Z,975.66
2019-03-18T10:24:05.423Z,975.74
2019-03-18T10:25:05.483Z,975.74
2019-03-18T10:26:04.739Z,975.71
2019-03-18T10:27:04.854Z,975.82
2019-03-18T10:28:05.256Z,975.68
2019-03-18T10:29:05.430Z,975.79
2019-03-18T10:30:04.843Z,975.90
2019-03-18T10:31:04.967Z,975.79
2019-03-18T10:32:05.289Z,975.59
2019-03-18T10:33:04.743Z,975.79
2019-03-18T10:34:04.574Z,975.90
2019-03-18T10:35:05.284Z,975.68
2019-03-18T10:36:05.583Z,975.73
2019-03-18T10:37:04.921Z,975.90
2019-03-18T10:38:05.080Z,975.93
2019-03-18T10:39:05.011Z,975.87
2019-03-18T10:40:04.537Z,975.79
2019-03-18T10:41:05.263Z,975.87
2019-03-18T10:42:05.513Z,976.01
2019-03-18T10:43:04.860Z,976.01
2019-03-18T10:44:09.982Z,975.93
2019-03-18T10:45:05.404Z,975.99
2019-03-18T10:46:04.611Z,975.85
2019-03-18T10:47:04.666Z,976.13
2019-03-18T10:48:04.634Z,975.93
2019-03-18T10:49:04.957Z,975.87
2019-03-18T10:50:05.148Z,975.90
2019-03-18T10:51:05.472Z,975.96
2019-03-18T10:52:05.658Z,976.04
2019-03-18T10:53:04.542Z,976.01
2019-03-18T10:54:05.365Z,976.18
2019-03-18T10:55:05.298Z,976.09
2019-03-18T10:56:08.523Z,976.00
2019-03-18T10:57:05.198Z,976.11
2019-03-18T10:58:05.548Z,976.00
2019-03-18T10:59:04.799Z,976.03
2019-03-18T11:00:04.677Z,976.06
2019-03-18T11:01:04.887Z,975.94
2019-03-18T11:02:04.531Z,975.88
2019-03-18T11:03:05.027Z,976.05
2019-03-18T11:04:05.055Z,976.02
2019-03-18T11:05:08.436Z,975.93
2019-03-18T11:06:05.600Z,975.93
2019-03-18T11:07:04.571Z,975.96
2019-03-18T11:08:05.182Z,976.07
2019-03-18T11:09:05.281Z,976.05
2019-03-18T11:10:04.610Z,976.02
2019-03-18T11:11:05.271Z,975.96
2019-03-18T11:12:04.818Z,976.08
2019-03-18T11:13:05.023Z,976.10
2019-03-18T11:14:05.125Z,976.05
2019-03-18T11:15:04.876Z,976.13
2019-03-18T11:16:04.794Z,976.11
2019-03-18T11:17:05.474Z,976.16
2019-03-18T11:18:10.029Z,976.11
2019-03-18T11:19:05.629Z,976.19
2019-03-18T11:20:05.100Z,976.22
2019-03-18T11:21:05.233Z,976.08
2019-03-18T11:22:04.730Z,976.17
2019-03-18T11:23:04.929Z,976.14
2019-03-18T11:24:05.218Z,975.94
2019-03-18T11:25:05.227Z,976.11
2019-03-18T11:26:04.974Z,976.08
2019-03-18T11:27:05.196Z,976.06
2019-03-18T11:28:04.871Z,976.06
2019-03-18T11:29:06.399Z,976.14
2019-03-18T11:30:04.585Z,976.03
2019-03-18T11:31:04.681Z,976.03
2019-03-18T11:32:05.267Z,976.03
2019-03-18T11:33:05.366Z,976.14
2019-03-18T11:34:04.874Z,975.89
2019-03-18T11:35:04.905Z,976.00
2019-03-18T11:36:04.680Z,976.02
2019-03-18T11:37:04.667Z,976.02
2019-03-18T11:38:04.659Z,976.05
2019-03-18T11:39:05.002Z,975.99
2019-03-18T11:40:05.294Z,976.07
2019-03-18T11:41:04.852Z,975.95
2019-03-18T11:42:04.847Z,975.92
2019-03-18T11:43:05.152Z,975.91
2019-03-18T11:44:05.008Z,975.97
2019-03-18T11:45:08.415Z,975.85
2019-03-18T11:46:05.267Z,975.90
2019-03-18T11:47:05.336Z,975.92
2019-03-18T11:48:05.452Z,975.95
2019-03-18T11:49:04.544Z,975.94
2019-03-18T11:50:11.853Z,975.88
2019-03-18T11:51:04.845Z,975.82
2019-03-18T11:52:09.908Z,975.85
2019-03-18T11:53:14.880Z,975.96
2019-03-18T11:54:04.635Z,975.87
2019-03-18T11:55:05.037Z,975.92
2019-03-18T11:56:05.146Z,975.81
2019-03-18T11:57:05.237Z,975.97
2019-03-18T11:58:05.167Z,975.97
2019-03-18T11:59:05.398Z,975.97
2019-03-18T12:00:05.439Z,975.85
2019-03-18T12:01:04.563Z,975.91
2019-03-18T12:02:05.130Z,975.91
2019-03-18T12:03:05.227Z,975.94
2019-03-18T12:04:05.441Z,975.94
2019-03-18T12:05:04.543Z,976.00
2019-03-18T12:06:04.680Z,976.00
2019-03-18T12:07:05.186Z,975.98
2019-03-18T12:08:05.291Z,976.07
2019-03-18T12:09:05.382Z,976.12
2019-03-18T12:10:04.722Z,976.01
2019-03-18T12:11:04.714Z,976.07
2019-03-18T12:12:13.201Z,976.02
2019-03-18T12:13:04.749Z,976.02
2019-03-18T12:14:05.115Z,976.05
2019-03-18T12:15:05.327Z,976.08
2019-03-18T12:16:05.463Z,975.97
2019-03-18T12:17:05.132Z,976.05
2019-03-18T12:18:05.394Z,976.06
2019-03-18T12:19:04.929Z,975.97
2019-03-18T12:20:05.075Z,976.09
2019-03-18T12:21:04.801Z,975.97
2019-03-18T12:22:04.996Z,976.09
2019-03-18T12:23:05.050Z,976.12
2019-03-18T12:24:04.711Z,976.12
2019-03-18T12:25:04.987Z,976.01
2019-03-18T12:26:05.363Z,976.01
2019-03-18T12:27:05.445Z,975.98
2019-03-18T12:28:05.821Z,975.98